createdAt,value
2022-11-01T06:44:26.526Z,100371.13
2022-11-01T06:46:57.499Z,100376.00
2022-11-01T06:49:27.306Z,100388.72
2022-11-01T06:51:55.585Z,100382.97
2022-11-01T06:54:24.135Z,100381.56
2022-11-01T06:57:06.409Z,100390.63
2022-11-01T06:59:36.292Z,100364.00
2022-11-01T07:02:08.880Z,100350.00
2022-11-01T07:04:40.661Z,100386.94
2022-11-01T07:07:12.400Z,100412.28
2022-11-01T07:09:43.423Z,100389.81
2022-11-01T07:12:12.097Z,100458.13
2022-11-01T07:14:42.843Z,100396.09
2022-11-01T07:17:11.404Z,100423.06
2022-11-01T07:19:40.281Z,100396.34
2022-11-01T07:22:08.922Z,100415.31
2022-11-01T07:24:40.596Z,100430.94
2022-11-01T07:27:19.429Z,100420.88
2022-11-01T07:29:52.916Z,100420.31
2022-11-01T07:32:21.262Z,100451.78
2022-11-01T07:34:49.675Z,100489.44
2022-11-01T07:37:17.806Z,100445.31
2022-11-01T07:39:47.707Z,100477.84
2022-11-01T07:42:16.120Z,100452.72
2022-11-01T07:44:45.914Z,100447.94
2022-11-01T07:47:16.169Z,100440.66
2022-11-01T07:49:44.452Z,100487.22
2022-11-01T07:52:12.836Z,100475.75
2022-11-01T07:54:43.024Z,100464.75
2022-11-01T07:57:16.441Z,100489.19
2022-11-01T07:59:44.319Z,100459.78
2022-11-01T08:02:12.247Z,100498.47
2022-11-01T08:04:42.723Z,100509.56
2022-11-01T08:07:11.136Z,100456.88
2022-11-01T08:09:40.326Z,100492.75
2022-11-01T08:12:16.995Z,100489.28
2022-11-01T08:14:53.600Z,100471.56
2022-11-01T08:17:21.918Z,100498.56
2022-11-01T08:19:52.550Z,100507.47
2022-11-01T08:22:20.712Z,100501.53
2022-11-01T08:24:49.184Z,100511.53
2022-11-01T08:27:22.745Z,100517.91
2022-11-01T08:29:51.289Z,100522.97
2022-11-01T08:32:23.137Z,100481.63
2022-11-01T08:34:53.277Z,100506.06
2022-11-01T08:37:22.021Z,100519.16
2022-11-01T08:39:50.135Z,100540.69
2022-11-01T08:42:18.688Z,100530.97
2022-11-01T08:44:48.579Z,100556.53
2022-11-01T08:47:19.370Z,100505.09
2022-11-01T08:49:50.145Z,100508.44
2022-11-01T08:52:20.099Z,100515.63
2022-11-01T08:54:48.142Z,100533.09
2022-11-01T08:57:20.757Z,100502.97
2022-11-01T08:59:48.810Z,100500.31
2022-11-01T09:02:18.073Z,100493.22
2022-11-01T09:04:46.196Z,100506.66
2022-11-01T09:07:14.311Z,100530.47
2022-11-01T09:09:44.380Z,100536.56
2022-11-01T09:12:14.603Z,100500.34
2022-11-01T09:14:43.475Z,100513.63
2022-11-01T09:17:11.489Z,100507.28
2022-11-01T09:19:39.454Z,100559.91
2022-11-01T09:22:07.993Z,100564.00
2022-11-01T09:24:47.620Z,100508.47
2022-11-01T09:27:18.700Z,100515.47
2022-11-01T09:29:51.033Z,100580.75
2022-11-01T09:32:23.020Z,100587.00
2022-11-01T09:34:51.195Z,100560.38
2022-11-01T09:37:19.338Z,100545.75
2022-11-01T09:39:52.958Z,100550.56
2022-11-01T09:42:26.468Z,100581.59
2022-11-01T09:44:58.661Z,100528.66
2022-11-01T09:47:29.911Z,100534.72
2022-11-01T09:50:08.218Z,100558.91
2022-11-01T09:52:36.320Z,100535.44
2022-11-01T09:55:18.067Z,100570.50
2022-11-01T09:57:52.875Z,100540.59
2022-11-01T10:00:24.057Z,100553.25
2022-11-01T10:03:22.931Z,100580.28
2022-11-01T10:06:03.865Z,100580.38
2022-11-01T10:08:42.472Z,100567.25
2022-11-01T10:11:33.402Z,100605.31
2022-11-01T10:14:10.394Z,100581.91
2022-11-01T10:16:42.514Z,100557.88
2022-11-01T10:19:14.914Z,100571.69
2022-11-01T10:21:49.157Z,100558.84
2022-11-01T10:24:25.145Z,100595.25
2022-11-01T10:27:01.645Z,100601.00
2022-11-01T10:29:38.650Z,100602.06
2022-11-01T10:32:21.856Z,100566.81
2022-11-01T10:34:51.123Z,100570.31
2022-11-01T10:37:33.453Z,100612.81
2022-11-01T10:40:09.279Z,100582.03
2022-11-01T10:42:39.780Z,100591.94
2022-11-01T10:45:11.528Z,100613.78
2022-11-01T10:47:43.345Z,100571.19
2022-11-01T10:50:19.052Z,100594.41
2022-11-01T10:52:53.042Z,100591.75
2022-11-01T10:55:27.466Z,100554.25
2022-11-01T10:58:02.222Z,100568.75
2022-11-01T11:00:33.883Z,100614.41
2022-11-01T11:03:14.524Z,100577.66
2022-11-01T11:05:45.195Z,100581.84
2022-11-01T11:08:19.438Z,100591.56
2022-11-01T11:10:51.067Z,100579.16
2022-11-01T11:13:25.081Z,100605.06
2022-11-01T11:15:56.300Z,100573.50
2022-11-01T11:18:27.078Z,100566.28
2022-11-01T11:21:00.499Z,100598.91
2022-11-01T11:23:31.786Z,100588.00
2022-11-01T11:26:04.666Z,100630.91
2022-11-01T11:28:44.064Z,100597.84
2022-11-01T11:31:18.677Z,100567.34
2022-11-01T11:33:52.345Z,100564.19
2022-11-01T11:36:28.701Z,100589.59
2022-11-01T11:38:58.955Z,100576.19
2022-11-01T11:41:29.273Z,100571.75
2022-11-01T11:44:00.705Z,100571.47
2022-11-01T11:46:28.701Z,100591.50
2022-11-01T11:49:00.321Z,100601.44
2022-11-01T11:51:34.037Z,100590.44
2022-11-01T11:54:21.819Z,100606.44
2022-11-01T11:56:53.312Z,100558.94
2022-11-01T11:59:31.087Z,100628.97
2022-11-01T12:02:00.950Z,100595.94
2022-11-01T12:04:33.298Z,100578.47
2022-11-01T12:07:07.340Z,100569.91
2022-11-01T12:09:46.754Z,100581.72
2022-11-01T12:12:20.442Z,100564.53
2022-11-01T12:14:50.615Z,100575.09
2022-11-01T12:17:27.598Z,100555.50
2022-11-01T12:20:02.260Z,100561.00
2022-11-01T12:22:35.068Z,100567.81
2022-11-01T12:25:09.126Z,100548.47
2022-11-01T12:27:38.382Z,100546.56
2022-11-01T12:30:20.828Z,100581.63
2022-11-01T12:32:54.339Z,100572.75
2022-11-01T12:35:30.175Z,100539.81
2022-11-01T12:38:14.567Z,100516.78
2022-11-01T12:40:47.199Z,100531.78
2022-11-01T12:43:21.159Z,100567.94
2022-11-01T12:45:56.524Z,100559.34
2022-11-01T12:48:28.734Z,100581.69
2022-11-01T12:51:01.657Z,100520.28
2022-11-01T12:53:36.235Z,100546.97
2022-11-01T12:56:04.215Z,100569.31
2022-11-01T12:58:36.027Z,100576.59
2022-11-01T13:01:23.148Z,100551.31
2022-11-01T13:04:13.945Z,100580.94
2022-11-01T13:07:10.176Z,100578.25
2022-11-01T13:09:43.260Z,100579.94
2022-11-01T13:12:19.164Z,100567.09
2022-11-01T13:14:58.305Z,100551.53
2022-11-01T13:17:38.970Z,100514.31
2022-11-01T13:20:22.197Z,100536.16
2022-11-01T13:22:58.796Z,100547.19
2022-11-01T13:25:36.389Z,100523.03
2022-11-01T13:28:16.138Z,100513.84
2022-11-01T13:30:54.079Z,100533.22
2022-11-01T13:33:32.706Z,100558.09
2022-11-01T13:36:07.110Z,100514.63
2022-11-01T13:38:44.148Z,100499.38
2022-11-01T13:41:20.680Z,100510.84
2022-11-01T13:43:53.132Z,100523.84
2022-11-01T13:46:54.017Z,100508.47
2022-11-01T13:49:43.560Z,100523.53
2022-11-01T13:52:19.563Z,100525.66
2022-11-01T13:54:54.871Z,100522.66
2022-11-01T13:57:28.363Z,100577.38
2022-11-01T13:59:59.403Z,100542.63
2022-11-01T14:02:47.673Z,100573.09
2022-11-01T14:05:17.442Z,100520.75
2022-11-01T14:08:21.740Z,100561.25
2022-11-01T14:10:52.211Z,100519.88
2022-11-01T14:13:31.995Z,100517.22
2022-11-01T14:16:25.362Z,100543.34
2022-11-01T14:19:20.475Z,100546.56
2022-11-01T14:21:53.280Z,100532.72
2022-11-01T14:24:35.774Z,100570.78
2022-11-01T14:27:22.900Z,100562.19
2022-11-01T14:29:54.665Z,100533.66
2022-11-01T14:32:28.482Z,100545.47
2022-11-01T14:35:18.447Z,100515.56
2022-11-01T14:37:51.825Z,100563.75
2022-11-01T14:40:32.585Z,100527.06
2022-11-01T14:43:05.622Z,100523.22
2022-11-01T14:45:37.389Z,100539.38
2022-11-01T14:48:14.013Z,100556.38
2022-11-01T14:50:51.630Z,100532.34
2022-11-01T14:53:28.292Z,100549.13
2022-11-01T14:56:08.221Z,100578.69
2022-11-01T14:58:37.764Z,100545.38
2022-11-01T15:01:08.191Z,100536.75
2022-11-01T15:03:36.494Z,100550.19
2022-11-01T15:06:05.749Z,100493.38
2022-11-01T15:08:43.140Z,100511.38
2022-11-01T15:11:11.884Z,100552.88
2022-11-01T15:13:44.289Z,100546.97
2022-11-01T15:16:21.075Z,100521.97
2022-11-01T15:18:53.336Z,100498.16
2022-11-01T15:21:28.859Z,100534.47
2022-11-01T15:24:03.701Z,100501.09
2022-11-01T15:26:37.303Z,100489.25
2022-11-01T15:29:07.012Z,100518.28
2022-11-01T15:31:50.153Z,100528.75
2022-11-01T15:34:24.111Z,100500.69
2022-11-01T15:36:52.544Z,100530.00
2022-11-01T15:39:23.969Z,100506.78
2022-11-01T15:41:54.791Z,100534.81
2022-11-01T15:44:24.773Z,100500.31
2022-11-01T15:46:55.581Z,100546.19
2022-11-01T15:49:27.120Z,100501.44
2022-11-01T15:51:59.701Z,100533.13
2022-11-01T15:54:39.041Z,100524.59
2022-11-01T15:57:14.682Z,100523.97
2022-11-01T15:59:51.840Z,100505.06
2022-11-01T16:02:26.180Z,100551.13
2022-11-01T16:04:57.251Z,100542.72
2022-11-01T16:07:28.362Z,100561.56
2022-11-01T16:10:02.407Z,100569.66
2022-11-01T16:12:34.009Z,100568.03
2022-11-01T16:15:06.856Z,100544.88
2022-11-01T16:17:37.850Z,100545.66
2022-11-01T16:20:27.176Z,100539.44
2022-11-01T16:22:59.605Z,100510.88
2022-11-01T17:37:06.703Z,100483.50
2022-11-01T17:49:08.955Z,100506.19
2022-11-01T17:55:15.707Z,100512.59
